Back to Top
Banner_Quays_at_Mast_2020.jpeg
Banner_VERITY.jpeg
Banner_P42_Kinsale_2004.jpeg
Superyacht_SCOUT.jpg
Kinsale_Trawlers_Banner.jpeg
previous arrow
next arrow

Port Arrivals Report (AIS)

This report is generated from collected AIS (Automated Identification System) signals from vessels entering port.

IMO MMSI Class Flag Vessel Name Vessel type Nav Status Destination Call Sign Latitude Longitude Speed (kts) Course (T) Draught (m) LOA (m) Beam (m) Timestamp
0 205378810 B BE PRANA SAILING. - OR3788 51.6879 -8.4987 5.3 348.2 0 14 4 2024-06-29 07:15:29
0 258991970 B NO S/Y VISION SAILING. - LG4789 51.6876 -8.49965 6.4 347 0 14 4 2024-06-28 23:57:07
0 250006035 B IE VALFREYA SAILING. - EI-XB-6 51.6875 -8.50085 6.7 351.2 0 10 3 2024-06-28 21:09:17
0 250003677 B IE SIBONEY SAILING. - EI-QT-2 51.6874 -8.49993 6.3 347.2 0 9 4 2024-06-28 21:08:56
0 250005095 B IE GGENESIS SAILING. - EITK2 51.6882 -8.49575 4.8 343.2 0 11 4 2024-06-28 21:07:52
0 250001875 B IE REAVRA TOO SAILING. - EIHT4 51.688 -8.49548 2.2 272.1 0 0 0 2024-06-28 21:04:16
0 235054089 B GB SHEELA NA GIG SAILING. - MHKF3 51.6873 -8.49967 5.5 2.9 0 12 4 2024-06-28 15:28:17
0 250001702 A IE ADRIANNE FISHING. Undefined CO EIGX7 51.6875 -8.49956 9 358.3 3.5 21 7 2024-06-28 15:10:41
0 250002515 B IE ROULETTA SAILING. - EI8831 51.6872 -8.4972 4.4 356.9 0 13 3 2024-06-28 15:09:31
0 235029354 B GB SNOWGOOSE SAILING. - MJZQ5 51.6876 -8.49822 6.1 351.5 0 12 4 2024-06-28 14:35:29
0 244010637 B NL XINIA SAILING. - PD9081 51.688 -8.50014 6.2 339.9 0 11 4 2024-06-28 14:32:12
0 232014229 B GB ALLEGRETTO OF WIGHT Pleasure craft - 2CGS7 51.6874 -8.49896 6.8 1.4 0 0 0 2024-06-28 14:01:05
0 250103750 B IE HARPY DREDGING / UNDERWATER Ops. - EI7410 51.688 -8.49949 7.7 349 0 13 4 2024-06-28 13:01:54
0 250000529 B IE CROSBY SAILING. - EI8450 51.6889 -8.49784 6.4 356.1 0 9 2 2024-06-28 12:49:37
0 227034580 B FR CIPANGO SAILING. - FGG6321 51.6878 -8.49885 3.9 349.6 0 12 4 2024-06-27 17:01:10
0 368172560 B US NABOO SAILING. - WDL8754 51.6879 -8.49824 7 349.9 0 17 6 2024-06-26 21:28:25
0 250103750 B IE HARPY DREDGING / UNDERWATER Ops. - EI7410 51.6897 -8.50094 9.1 345 0 13 4 2024-06-26 21:10:58
0 250001206 B IE CAPELLA OF KINSALE SAILING. - EIDI6 51.6874 -8.49594 7.7 321.1 0 12 4 2024-06-26 20:29:56
0 250106680 B IE CIRRUS SAILING. - EI7621 51.6884 -8.49726 7 319.1 0 10 4 2024-06-26 20:22:38
0 250001875 B IE REAVRA TOO SAILING. - EIHT4 51.6879 -8.49605 7 326.9 0 0 0 2024-06-26 20:15:46